sensor_id;sensor_type;location;lat;lon;timestamp;temperature;humidity
69054;DHT22;56125;52.242;4.756;2023-04-25T00:01:57;18.80;47.20
69054;DHT22;56125;52.242;4.756;2023-04-25T00:06:59;18.80;47.00
69054;DHT22;56125;52.242;4.756;2023-04-25T00:12:02;18.80;47.10
69054;DHT22;56125;52.242;4.756;2023-04-25T00:17:03;18.80;47.20
69054;DHT22;56125;52.242;4.756;2023-04-25T00:22:05;18.80;46.90
69054;DHT22;56125;52.242;4.756;2023-04-25T00:27:06;18.80;46.80
69054;DHT22;56125;52.242;4.756;2023-04-25T00:32:07;18.80;46.90
69054;DHT22;56125;52.242;4.756;2023-04-25T00:37:08;18.80;46.60
69054;DHT22;56125;52.242;4.756;2023-04-25T00:42:10;18.70;47.20
69054;DHT22;56125;52.242;4.756;2023-04-25T00:47:12;18.80;46.50
69054;DHT22;56125;52.242;4.756;2023-04-25T00:52:14;18.70;46.50
69054;DHT22;56125;52.242;4.756;2023-04-25T00:57:15;18.70;46.30
69054;DHT22;56125;52.242;4.756;2023-04-25T01:02:16;18.70;46.30
69054;DHT22;56125;52.242;4.756;2023-04-25T01:07:18;18.70;46.10
69054;DHT22;56125;52.242;4.756;2023-04-25T01:12:19;18.70;46.50
69054;DHT22;56125;52.242;4.756;2023-04-25T01:17:21;18.70;46.10
69054;DHT22;56125;52.242;4.756;2023-04-25T01:22:23;18.70;46.10
69054;DHT22;56125;52.242;4.756;2023-04-25T01:27:24;18.70;45.70
69054;DHT22;56125;52.242;4.756;2023-04-25T01:32:26;18.70;45.90
69054;DHT22;56125;52.242;4.756;2023-04-25T01:37:27;18.70;45.80
69054;DHT22;56125;52.242;4.756;2023-04-25T01:42:28;18.70;45.70
69054;DHT22;56125;52.242;4.756;2023-04-25T01:47:30;18.70;45.60
69054;DHT22;56125;52.242;4.756;2023-04-25T01:52:31;18.70;45.90
69054;DHT22;56125;52.242;4.756;2023-04-25T01:57:32;18.70;45.60
69054;DHT22;56125;52.242;4.756;2023-04-25T02:02:33;19.00;45.60
69054;DHT22;56125;52.242;4.756;2023-04-25T02:07:34;18.70;45.30
69054;DHT22;56125;52.242;4.756;2023-04-25T02:12:35;18.70;45.30
69054;DHT22;56125;52.242;4.756;2023-04-25T02:17:37;18.70;46.00
69054;DHT22;56125;52.242;4.756;2023-04-25T02:22:38;18.70;45.60
69054;DHT22;56125;52.242;4.756;2023-04-25T02:27:39;18.60;45.10
69054;DHT22;56125;52.242;4.756;2023-04-25T02:32:40;18.70;45.40
69054;DHT22;56125;52.242;4.756;2023-04-25T02:37:42;18.70;45.20
69054;DHT22;56125;52.242;4.756;2023-04-25T02:42:43;18.70;45.60
69054;DHT22;56125;52.242;4.756;2023-04-25T02:47:46;17.90;44.50
69054;DHT22;56125;52.242;4.756;2023-04-25T02:52:47;18.70;45.10
69054;DHT22;56125;52.242;4.756;2023-04-25T02:57:48;18.60;45.10
69054;DHT22;56125;52.242;4.756;2023-04-25T03:02:49;18.60;45.00
69054;DHT22;56125;52.242;4.756;2023-04-25T03:07:50;18.60;45.00
69054;DHT22;56125;52.242;4.756;2023-04-25T03:12:51;18.60;44.90
69054;DHT22;56125;52.242;4.756;2023-04-25T03:17:52;18.60;45.00
69054;DHT22;56125;52.242;4.756;2023-04-25T03:22:53;18.90;45.20
69054;DHT22;56125;52.242;4.756;2023-04-25T03:27:54;18.60;45.10
69054;DHT22;56125;52.242;4.756;2023-04-25T03:32:56;18.60;45.00
69054;DHT22;56125;52.242;4.756;2023-04-25T03:37:57;18.60;45.10
69054;DHT22;56125;52.242;4.756;2023-04-25T03:42:58;18.60;45.20
69054;DHT22;56125;52.242;4.756;2023-04-25T03:47:59;18.60;44.80
69054;DHT22;56125;52.242;4.756;2023-04-25T03:53:00;18.60;45.00
69054;DHT22;56125;52.242;4.756;2023-04-25T03:58:02;18.60;44.80
69054;DHT22;56125;52.242;4.756;2023-04-25T04:03:03;18.60;44.80
69054;DHT22;56125;52.242;4.756;2023-04-25T04:08:04;18.60;44.80
69054;DHT22;56125;52.242;4.756;2023-04-25T04:13:06;18.60;44.70
69054;DHT22;56125;52.242;4.756;2023-04-25T04:18:07;18.60;44.70
69054;DHT22;56125;52.242;4.756;2023-04-25T04:23:08;18.60;44.70
69054;DHT22;56125;52.242;4.756;2023-04-25T04:28:09;18.50;44.70
69054;DHT22;56125;52.242;4.756;2023-04-25T04:33:11;18.60;44.60
69054;DHT22;56125;52.242;4.756;2023-04-25T04:38:13;18.50;44.40
69054;DHT22;56125;52.242;4.756;2023-04-25T04:43:16;18.50;44.70
69054;DHT22;56125;52.242;4.756;2023-04-25T04:48:17;18.50;44.60
69054;DHT22;56125;52.242;4.756;2023-04-25T04:53:19;18.50;44.40
69054;DHT22;56125;52.242;4.756;2023-04-25T04:58:21;18.60;44.30
69054;DHT22;56125;52.242;4.756;2023-04-25T05:03:22;18.50;44.30
69054;DHT22;56125;52.242;4.756;2023-04-25T05:08:23;18.50;44.30
69054;DHT22;56125;52.242;4.756;2023-04-25T05:13:24;18.50;44.40
69054;DHT22;56125;52.242;4.756;2023-04-25T05:18:25;18.50;44.10
69054;DHT22;56125;52.242;4.756;2023-04-25T05:23:26;18.50;44.20
69054;DHT22;56125;52.242;4.756;2023-04-25T05:28:28;18.50;44.00
69054;DHT22;56125;52.242;4.756;2023-04-25T05:33:29;18.50;44.50
69054;DHT22;56125;52.242;4.756;2023-04-25T05:38:30;18.50;44.00
69054;DHT22;56125;52.242;4.756;2023-04-25T05:43:31;18.50;44.00
69054;DHT22;56125;52.242;4.756;2023-04-25T05:48:32;18.60;44.10
69054;DHT22;56125;52.242;4.756;2023-04-25T05:53:33;18.60;44.10
69054;DHT22;56125;52.242;4.756;2023-04-25T05:58:35;18.70;44.00
69054;DHT22;56125;52.242;4.756;2023-04-25T06:03:36;18.30;43.60
69054;DHT22;56125;52.242;4.756;2023-04-25T06:08:38;18.70;43.90
69054;DHT22;56125;52.242;4.756;2023-04-25T06:13:39;18.80;43.40
69054;DHT22;56125;52.242;4.756;2023-04-25T06:18:40;18.70;43.90
69054;DHT22;56125;52.242;4.756;2023-04-25T06:23:41;18.80;43.70
69054;DHT22;56125;52.242;4.756;2023-04-25T06:28:42;18.80;43.90
69054;DHT22;56125;52.242;4.756;2023-04-25T06:33:43;18.70;44.00
69054;DHT22;56125;52.242;4.756;2023-04-25T06:38:44;18.70;43.60
69054;DHT22;56125;52.242;4.756;2023-04-25T06:43:46;18.70;43.50
69054;DHT22;56125;52.242;4.756;2023-04-25T06:48:47;18.70;43.60
69054;DHT22;56125;52.242;4.756;2023-04-25T06:53:48;18.70;44.00
69054;DHT22;56125;52.242;4.756;2023-04-25T06:58:49;18.70;43.60
69054;DHT22;56125;52.242;4.756;2023-04-25T07:03:50;18.70;43.30
69054;DHT22;56125;52.242;4.756;2023-04-25T07:08:51;18.70;43.20
69054;DHT22;56125;52.242;4.756;2023-04-25T07:13:52;18.70;43.30
69054;DHT22;56125;52.242;4.756;2023-04-25T07:18:53;18.90;43.20
69054;DHT22;56125;52.242;4.756;2023-04-25T07:23:54;18.70;43.30
69054;DHT22;56125;52.242;4.756;2023-04-25T07:28:56;18.80;42.70
69054;DHT22;56125;52.242;4.756;2023-04-25T07:33:57;18.80;43.20
69054;DHT22;56125;52.242;4.756;2023-04-25T07:38:58;18.80;43.00
69054;DHT22;56125;52.242;4.756;2023-04-25T07:43:59;18.90;42.70
69054;DHT22;56125;52.242;4.756;2023-04-25T07:49:00;18.90;42.50
69054;DHT22;56125;52.242;4.756;2023-04-25T07:54:01;18.90;42.40
69054;DHT22;56125;52.242;4.756;2023-04-25T07:59:02;18.90;42.60
69054;DHT22;56125;52.242;4.756;2023-04-25T08:04:03;18.90;43.00
69054;DHT22;56125;52.242;4.756;2023-04-25T08:09:04;19.00;42.20
69054;DHT22;56125;52.242;4.756;2023-04-25T08:14:05;19.00;42.70
69054;DHT22;56125;52.242;4.756;2023-04-25T08:19:06;18.90;42.30
69054;DHT22;56125;52.242;4.756;2023-04-25T08:24:07;19.00;42.30
69054;DHT22;56125;52.242;4.756;2023-04-25T08:29:08;19.00;42.40
69054;DHT22;56125;52.242;4.756;2023-04-25T08:34:09;19.00;42.10
69054;DHT22;56125;52.242;4.756;2023-04-25T08:39:11;19.00;41.70
69054;DHT22;56125;52.242;4.756;2023-04-25T08:44:14;19.00;42.20
69054;DHT22;56125;52.242;4.756;2023-04-25T08:49:17;19.00;41.90
69054;DHT22;56125;52.242;4.756;2023-04-25T08:54:20;19.00;42.60
69054;DHT22;56125;52.242;4.756;2023-04-25T08:59:25;19.00;47.80
69054;DHT22;56125;52.242;4.756;2023-04-25T09:04:27;19.00;47.50
69054;DHT22;56125;52.242;4.756;2023-04-25T09:09:30;19.00;48.70
69054;DHT22;56125;52.242;4.756;2023-04-25T09:14:31;19.00;48.70
69054;DHT22;56125;52.242;4.756;2023-04-25T09:19:34;18.30;48.80
69054;DHT22;56125;52.242;4.756;2023-04-25T09:24:43;18.90;49.60
69054;DHT22;56125;52.242;4.756;2023-04-25T09:29:46;18.90;49.00
69054;DHT22;56125;52.242;4.756;2023-04-25T09:34:52;18.90;49.70
69054;DHT22;56125;52.242;4.756;2023-04-25T09:39:58;18.90;49.70
69054;DHT22;56125;52.242;4.756;2023-04-25T09:45:06;18.90;49.70
69054;DHT22;56125;52.242;4.756;2023-04-25T09:50:15;18.90;49.80
69054;DHT22;56125;52.242;4.756;2023-04-25T09:55:16;18.90;49.90
69054;DHT22;56125;52.242;4.756;2023-04-25T10:00:18;18.90;49.50
69054;DHT22;56125;52.242;4.756;2023-04-25T10:05:20;18.90;49.70
69054;DHT22;56125;52.242;4.756;2023-04-25T10:10:22;18.90;49.40
69054;DHT22;56125;52.242;4.756;2023-04-25T10:15:27;18.90;49.60
69054;DHT22;56125;52.242;4.756;2023-04-25T10:20:29;18.90;49.50
69054;DHT22;56125;52.242;4.756;2023-04-25T10:25:30;18.90;49.60
69054;DHT22;56125;52.242;4.756;2023-04-25T10:30:31;18.90;49.70
69054;DHT22;56125;52.242;4.756;2023-04-25T10:35:33;18.90;49.90
69054;DHT22;56125;52.242;4.756;2023-04-25T10:40:36;18.90;49.70
69054;DHT22;56125;52.242;4.756;2023-04-25T10:45:53;18.90;49.30
69054;DHT22;56125;52.242;4.756;2023-04-25T10:51:10;18.90;49.90
69054;DHT22;56125;52.242;4.756;2023-04-25T10:56:19;18.90;49.90
69054;DHT22;56125;52.242;4.756;2023-04-25T11:01:21;19.00;49.60
69054;DHT22;56125;52.242;4.756;2023-04-25T11:11:57;18.90;49.50
69054;DHT22;56125;52.242;4.756;2023-04-25T11:16:59;19.00;49.10
69054;DHT22;56125;52.242;4.756;2023-04-25T11:22:02;18.90;49.00
69054;DHT22;56125;52.242;4.756;2023-04-25T11:27:04;18.90;49.10
69054;DHT22;56125;52.242;4.756;2023-04-25T11:32:06;18.90;48.50
69054;DHT22;56125;52.242;4.756;2023-04-25T11:37:08;18.90;48.40
69054;DHT22;56125;52.242;4.756;2023-04-25T11:42:09;18.90;48.90
69054;DHT22;56125;52.242;4.756;2023-04-25T11:47:10;18.90;48.20
69054;DHT22;56125;52.242;4.756;2023-04-25T11:52:11;18.90;48.10
69054;DHT22;56125;52.242;4.756;2023-04-25T11:57:13;18.90;48.90
69054;DHT22;56125;52.242;4.756;2023-04-25T12:02:26;18.90;49.20
69054;DHT22;56125;52.242;4.756;2023-04-25T12:07:30;18.90;48.80
69054;DHT22;56125;52.242;4.756;2023-04-25T12:12:35;18.90;49.00
69054;DHT22;56125;52.242;4.756;2023-04-25T12:17:38;18.60;48.00
69054;DHT22;56125;52.242;4.756;2023-04-25T12:22:41;19.00;48.70
69054;DHT22;56125;52.242;4.756;2023-04-25T12:27:45;19.00;48.50
69054;DHT22;56125;52.242;4.756;2023-04-25T12:32:47;18.90;48.20
69054;DHT22;56125;52.242;4.756;2023-04-25T12:37:48;18.90;48.10
69054;DHT22;56125;52.242;4.756;2023-04-25T12:42:49;18.90;48.20
69054;DHT22;56125;52.242;4.756;2023-04-25T12:47:51;19.00;47.80
69054;DHT22;56125;52.242;4.756;2023-04-25T12:52:52;18.90;47.70
69054;DHT22;56125;52.242;4.756;2023-04-25T12:57:53;19.00;47.40
69054;DHT22;56125;52.242;4.756;2023-04-25T13:02:54;19.00;47.50
69054;DHT22;56125;52.242;4.756;2023-04-25T13:07:56;19.00;48.00
69054;DHT22;56125;52.242;4.756;2023-04-25T13:12:57;19.00;47.70
69054;DHT22;56125;52.242;4.756;2023-04-25T13:17:58;19.00;47.20
69054;DHT22;56125;52.242;4.756;2023-04-25T13:22:59;19.00;47.00
69054;DHT22;56125;52.242;4.756;2023-04-25T13:28:01;19.00;47.30
69054;DHT22;56125;52.242;4.756;2023-04-25T13:33:02;19.00;47.00
69054;DHT22;56125;52.242;4.756;2023-04-25T13:38:04;19.00;46.80
69054;DHT22;56125;52.242;4.756;2023-04-25T13:43:05;19.00;46.60
69054;DHT22;56125;52.242;4.756;2023-04-25T13:48:07;19.00;46.70
69054;DHT22;56125;52.242;4.756;2023-04-25T13:53:08;19.00;46.90
69054;DHT22;56125;52.242;4.756;2023-04-25T13:58:09;19.00;46.70
69054;DHT22;56125;52.242;4.756;2023-04-25T14:03:10;19.00;46.50
69054;DHT22;56125;52.242;4.756;2023-04-25T14:08:11;19.00;46.30
69054;DHT22;56125;52.242;4.756;2023-04-25T14:13:12;19.00;46.20
69054;DHT22;56125;52.242;4.756;2023-04-25T14:18:13;19.00;45.80
69054;DHT22;56125;52.242;4.756;2023-04-25T14:23:14;19.00;45.80
69054;DHT22;56125;52.242;4.756;2023-04-25T14:28:15;19.00;45.80
69054;DHT22;56125;52.242;4.756;2023-04-25T14:33:16;19.00;45.60
69054;DHT22;56125;52.242;4.756;2023-04-25T14:38:17;19.00;45.50
69054;DHT22;56125;52.242;4.756;2023-04-25T14:43:23;19.00;45.30
69054;DHT22;56125;52.242;4.756;2023-04-25T14:48:24;19.00;45.00
69054;DHT22;56125;52.242;4.756;2023-04-25T14:53:26;19.00;45.60
69054;DHT22;56125;52.242;4.756;2023-04-25T14:58:27;19.00;44.90
69054;DHT22;56125;52.242;4.756;2023-04-25T15:03:28;19.00;45.90
69054;DHT22;56125;52.242;4.756;2023-04-25T15:08:29;18.60;44.60
69054;DHT22;56125;52.242;4.756;2023-04-25T15:13:31;18.90;44.50
69054;DHT22;56125;52.242;4.756;2023-04-25T15:18:32;19.00;43.30
69054;DHT22;56125;52.242;4.756;2023-04-25T15:23:33;19.00;44.40
69054;DHT22;56125;52.242;4.756;2023-04-25T15:28:34;19.00;44.30
69054;DHT22;56125;52.242;4.756;2023-04-25T15:33:35;19.00;44.40
69054;DHT22;56125;52.242;4.756;2023-04-25T15:38:36;19.00;44.70
69054;DHT22;56125;52.242;4.756;2023-04-25T15:43:37;18.90;44.50
69054;DHT22;56125;52.242;4.756;2023-04-25T15:48:40;18.90;44.30
69054;DHT22;56125;52.242;4.756;2023-04-25T15:53:41;19.00;43.80
69054;DHT22;56125;52.242;4.756;2023-04-25T15:58:42;18.90;43.70
69054;DHT22;56125;52.242;4.756;2023-04-25T16:03:43;19.00;43.80
69054;DHT22;56125;52.242;4.756;2023-04-25T16:08:44;19.00;43.50
69054;DHT22;56125;52.242;4.756;2023-04-25T16:13:45;18.90;43.40
69054;DHT22;56125;52.242;4.756;2023-04-25T16:18:46;18.90;43.30
69054;DHT22;56125;52.242;4.756;2023-04-25T16:23:47;18.90;43.10
69054;DHT22;56125;52.242;4.756;2023-04-25T16:28:48;18.90;43.10
69054;DHT22;56125;52.242;4.756;2023-04-25T16:33:49;18.90;43.10
69054;DHT22;56125;52.242;4.756;2023-04-25T16:38:50;18.90;43.00
69054;DHT22;56125;52.242;4.756;2023-04-25T16:43:51;18.40;42.70
69054;DHT22;56125;52.242;4.756;2023-04-25T16:48:52;18.90;42.80
69054;DHT22;56125;52.242;4.756;2023-04-25T16:53:53;18.90;42.80
69054;DHT22;56125;52.242;4.756;2023-04-25T16:58:55;18.90;43.10
69054;DHT22;56125;52.242;4.756;2023-04-25T17:03:56;18.90;43.20
69054;DHT22;56125;52.242;4.756;2023-04-25T17:08:57;18.90;43.20
69054;DHT22;56125;52.242;4.756;2023-04-25T17:13:58;18.90;43.10
69054;DHT22;56125;52.242;4.756;2023-04-25T17:18:59;18.90;43.50
69054;DHT22;56125;52.242;4.756;2023-04-25T17:24:00;18.90;43.60
69054;DHT22;56125;52.242;4.756;2023-04-25T17:29:05;18.90;43.60
69054;DHT22;56125;52.242;4.756;2023-04-25T17:34:06;18.80;44.50
69054;DHT22;56125;52.242;4.756;2023-04-25T17:39:09;18.80;43.70
69054;DHT22;56125;52.242;4.756;2023-04-25T17:44:10;18.80;43.70
69054;DHT22;56125;52.242;4.756;2023-04-25T17:49:11;18.80;43.60
69054;DHT22;56125;52.242;4.756;2023-04-25T17:54:12;18.90;43.70
69054;DHT22;56125;52.242;4.756;2023-04-25T17:59:14;18.50;43.40
69054;DHT22;56125;52.242;4.756;2023-04-25T18:04:15;18.80;43.60
69054;DHT22;56125;52.242;4.756;2023-04-25T18:09:18;18.80;43.50
69054;DHT22;56125;52.242;4.756;2023-04-25T18:14:23;18.80;43.30
69054;DHT22;56125;52.242;4.756;2023-04-25T18:19:24;18.80;43.30
69054;DHT22;56125;52.242;4.756;2023-04-25T18:24:26;18.80;43.20
69054;DHT22;56125;52.242;4.756;2023-04-25T18:29:28;18.80;43.20
69054;DHT22;56125;52.242;4.756;2023-04-25T18:34:30;18.80;43.10
69054;DHT22;56125;52.242;4.756;2023-04-25T18:39:31;18.70;43.10
69054;DHT22;56125;52.242;4.756;2023-04-25T18:44:32;18.70;42.80
69054;DHT22;56125;52.242;4.756;2023-04-25T18:49:36;18.70;42.90
69054;DHT22;56125;52.242;4.756;2023-04-25T18:54:40;18.10;42.40
69054;DHT22;56125;52.242;4.756;2023-04-25T18:59:43;18.70;42.60
69054;DHT22;56125;52.242;4.756;2023-04-25T19:04:45;18.70;43.30
69054;DHT22;56125;52.242;4.756;2023-04-25T19:09:46;18.70;46.80
69054;DHT22;56125;52.242;4.756;2023-04-25T19:14:47;18.70;48.10
69054;DHT22;56125;52.242;4.756;2023-04-25T19:19:50;18.70;49.10
69054;DHT22;56125;52.242;4.756;2023-04-25T19:24:51;18.70;49.90
69054;DHT22;56125;52.242;4.756;2023-04-25T19:29:52;18.70;50.70
69054;DHT22;56125;52.242;4.756;2023-04-25T19:34:59;18.70;51.40
69054;DHT22;56125;52.242;4.756;2023-04-25T19:40:00;18.70;52.10
69054;DHT22;56125;52.242;4.756;2023-04-25T19:45:01;18.60;52.60
69054;DHT22;56125;52.242;4.756;2023-04-25T19:50:07;18.40;52.80
69054;DHT22;56125;52.242;4.756;2023-04-25T19:55:09;18.60;53.20
69054;DHT22;56125;52.242;4.756;2023-04-25T20:00:12;18.60;53.50
69054;DHT22;56125;52.242;4.756;2023-04-25T20:05:15;18.60;53.90
69054;DHT22;56125;52.242;4.756;2023-04-25T20:10:16;18.90;54.20
69054;DHT22;56125;52.242;4.756;2023-04-25T20:15:18;18.60;54.00
69054;DHT22;56125;52.242;4.756;2023-04-25T20:20:19;18.60;54.50
69054;DHT22;56125;52.242;4.756;2023-04-25T20:25:20;18.60;54.50
69054;DHT22;56125;52.242;4.756;2023-04-25T20:30:21;18.60;55.10
69054;DHT22;56125;52.242;4.756;2023-04-25T20:35:22;18.60;56.00
69054;DHT22;56125;52.242;4.756;2023-04-25T20:40:23;18.60;54.80
69054;DHT22;56125;52.242;4.756;2023-04-25T20:45:24;18.60;55.00
69054;DHT22;56125;52.242;4.756;2023-04-25T20:50:31;18.60;55.00
69054;DHT22;56125;52.242;4.756;2023-04-25T20:55:32;18.60;55.00
69054;DHT22;56125;52.242;4.756;2023-04-25T21:00:33;18.60;55.30
69054;DHT22;56125;52.242;4.756;2023-04-25T21:05:34;18.60;55.30
69054;DHT22;56125;52.242;4.756;2023-04-25T21:10:36;18.60;55.00
69054;DHT22;56125;52.242;4.756;2023-04-25T21:15:37;18.60;54.60
69054;DHT22;56125;52.242;4.756;2023-04-25T21:20:38;18.60;54.80
69054;DHT22;56125;52.242;4.756;2023-04-25T21:25:39;18.60;54.50
69054;DHT22;56125;52.242;4.756;2023-04-25T21:30:41;18.50;54.60
69054;DHT22;56125;52.242;4.756;2023-04-25T21:35:43;19.20;54.50
69054;DHT22;56125;52.242;4.756;2023-04-25T21:40:44;18.60;53.90
69054;DHT22;56125;52.242;4.756;2023-04-25T21:45:45;18.30;53.80
69054;DHT22;56125;52.242;4.756;2023-04-25T21:50:46;18.50;54.00
69054;DHT22;56125;52.242;4.756;2023-04-25T21:55:47;18.50;53.60
69054;DHT22;56125;52.242;4.756;2023-04-25T22:00:48;18.50;53.50
69054;DHT22;56125;52.242;4.756;2023-04-25T22:05:50;18.50;53.40
69054;DHT22;56125;52.242;4.756;2023-04-25T22:10:52;18.50;53.20
69054;DHT22;56125;52.242;4.756;2023-04-25T22:15:54;18.50;53.20
69054;DHT22;56125;52.242;4.756;2023-04-25T22:20:55;18.50;52.90
69054;DHT22;56125;52.242;4.756;2023-04-25T22:25:57;18.50;52.60
69054;DHT22;56125;52.242;4.756;2023-04-25T22:30:58;18.50;52.70
69054;DHT22;56125;52.242;4.756;2023-04-25T22:35:59;18.50;52.90
69054;DHT22;56125;52.242;4.756;2023-04-25T22:41:00;18.40;52.80
69054;DHT22;56125;52.242;4.756;2023-04-25T22:46:01;18.40;52.30
69054;DHT22;56125;52.242;4.756;2023-04-25T22:51:03;18.40;51.90
69054;DHT22;56125;52.242;4.756;2023-04-25T22:56:05;18.40;52.10
69054;DHT22;56125;52.242;4.756;2023-04-25T23:01:07;18.40;51.80
69054;DHT22;56125;52.242;4.756;2023-04-25T23:06:09;18.40;51.70
69054;DHT22;56125;52.242;4.756;2023-04-25T23:11:10;18.40;51.70
69054;DHT22;56125;52.242;4.756;2023-04-25T23:16:11;18.40;51.60
69054;DHT22;56125;52.242;4.756;2023-04-25T23:21:12;18.40;51.30
69054;DHT22;56125;52.242;4.756;2023-04-25T23:26:13;18.40;51.50
69054;DHT22;56125;52.242;4.756;2023-04-25T23:31:15;18.40;51.40
69054;DHT22;56125;52.242;4.756;2023-04-25T23:36:17;18.30;51.10
69054;DHT22;56125;52.242;4.756;2023-04-25T23:41:21;18.40;51.60
69054;DHT22;56125;52.242;4.756;2023-04-25T23:46:22;18.30;50.70
69054;DHT22;56125;52.242;4.756;2023-04-25T23:51:23;18.30;50.60
69054;DHT22;56125;52.242;4.756;2023-04-25T23:56:25;18.40;50.50
